Purple Springs, Canada
Current Conditions -  °F | °C
As of 12:00 AM on Thursday 23 Oct 2014 (Local Time) from CYQL Reporting Station
Clear Clear  
Wind Chill: 44°   Ceiling: Unl
Heat Index: 48°   Visibility: 9mi
Dew Point: 37°   Wind: 10mph
Humidity: 66%   Direction: 220°SW
Pressure: 29.68"   Gusts: 23mph
Location:  49.81°N, 111.87°W
Report Text: CYQL 230600Z AUTO 22009G20KT 9SM CLR 09/03 A2968 RMK SLP056 DENSITY ALT 3300FT
Loading
Personal Weather Stations






























Interactive Weather Map
Tropical Storm Tracking
New forecast layout! Learn more

10-Day Weather Forecast

Advertisements
Track Severe Weather on mobile